sensor_id;sensor_type;location;lat;lon;timestamp;pressure;altitude;pressure_sealevel;temperature;humidity
17450;BME280;8842;51.244;7.102;2023-02-01T00:01:18;99783.96;;;6.23;100.00
17450;BME280;8842;51.244;7.102;2023-02-01T00:11:34;99798.25;;;6.10;100.00
17450;BME280;8842;51.244;7.102;2023-02-01T00:21:50;99800.78;;;5.87;100.00
17450;BME280;8842;51.244;7.102;2023-02-01T00:37:17;99786.86;;;5.85;100.00
17450;BME280;8842;51.244;7.102;2023-02-01T00:42:21;99795.30;;;5.83;100.00
17450;BME280;8842;51.244;7.102;2023-02-01T00:52:37;99773.22;;;5.86;100.00
17450;BME280;8842;51.244;7.102;2023-02-01T01:02:53;99757.37;;;5.94;100.00
17450;BME280;8842;51.244;7.102;2023-02-01T01:13:10;99732.50;;;5.91;100.00
17450;BME280;8842;51.244;7.102;2023-02-01T01:23:27;99776.95;;;6.06;100.00
17450;BME280;8842;51.244;7.102;2023-02-01T01:33:44;99770.20;;;6.09;100.00
17450;BME280;8842;51.244;7.102;2023-02-01T01:44:00;99767.59;;;6.00;100.00
17450;BME280;8842;51.244;7.102;2023-02-01T01:54:23;99760.76;;;5.96;100.00
17450;BME280;8842;51.244;7.102;2023-02-01T02:04:39;99754.20;;;5.79;100.00
17450;BME280;8842;51.244;7.102;2023-02-01T02:14:55;99754.00;;;5.58;100.00
17450;BME280;8842;51.244;7.102;2023-02-01T02:36:36;99740.00;;;5.41;100.00
17450;BME280;8842;51.244;7.102;2023-02-01T02:41:47;99741.95;;;5.20;100.00
17450;BME280;8842;51.244;7.102;2023-02-01T02:47:13;99734.29;;;5.16;100.00
17450;BME280;8842;51.244;7.102;2023-02-01T02:57:41;99718.57;;;5.14;100.00
17450;BME280;8842;51.244;7.102;2023-02-01T03:08:18;99722.38;;;5.09;100.00
17450;BME280;8842;51.244;7.102;2023-02-01T03:18:44;99730.95;;;5.12;100.00
17450;BME280;8842;51.244;7.102;2023-02-01T03:34:15;99708.33;;;5.25;100.00
17450;BME280;8842;51.244;7.102;2023-02-01T03:44:36;99694.25;;;5.26;100.00
17450;BME280;8842;51.244;7.102;2023-02-01T04:00:09;99689.59;;;5.40;100.00
17450;BME280;8842;51.244;7.102;2023-02-01T04:10:27;99694.78;;;5.41;100.00
17450;BME280;8842;51.244;7.102;2023-02-01T04:20:43;99680.50;;;5.45;100.00
17450;BME280;8842;51.244;7.102;2023-02-01T04:25:48;99660.13;;;5.40;100.00
17450;BME280;8842;51.244;7.102;2023-02-01T04:36:03;99636.05;;;5.39;100.00
17450;BME280;8842;51.244;7.102;2023-02-01T04:46:21;99655.53;;;5.52;100.00
17450;BME280;8842;51.244;7.102;2023-02-01T04:56:37;99663.56;;;5.58;100.00
17450;BME280;8842;51.244;7.102;2023-02-01T05:06:53;99670.57;;;5.74;100.00
17450;BME280;8842;51.244;7.102;2023-02-01T05:17:10;99672.87;;;5.80;100.00
17450;BME280;8842;51.244;7.102;2023-02-01T05:27:25;99681.09;;;5.91;100.00
17450;BME280;8842;51.244;7.102;2023-02-01T05:37:43;99661.27;;;5.76;100.00
17450;BME280;8842;51.244;7.102;2023-02-01T05:42:47;99677.03;;;5.69;100.00
17450;BME280;8842;51.244;7.102;2023-02-01T05:53:02;99671.64;;;5.87;100.00
17450;BME280;8842;51.244;7.102;2023-02-01T06:03:18;99690.28;;;5.84;100.00
17450;BME280;8842;51.244;7.102;2023-02-01T06:08:22;99671.64;;;5.79;100.00
17450;BME280;8842;51.244;7.102;2023-02-01T06:18:40;99657.64;;;5.78;100.00
17450;BME280;8842;51.244;7.102;2023-02-01T06:28:56;99656.73;;;5.71;100.00
17450;BME280;8842;51.244;7.102;2023-02-01T06:39:12;99668.27;;;5.68;100.00
17450;BME280;8842;51.244;7.102;2023-02-01T06:54:44;99686.55;;;5.80;100.00
17450;BME280;8842;51.244;7.102;2023-02-01T07:05:00;99678.96;;;5.82;100.00
17450;BME280;8842;51.244;7.102;2023-02-01T07:20:30;99695.19;;;5.90;100.00
17450;BME280;8842;51.244;7.102;2023-02-01T07:30:47;99708.94;;;5.88;100.00
17450;BME280;8842;51.244;7.102;2023-02-01T07:35:53;99711.73;;;5.85;100.00
17450;BME280;8842;51.244;7.102;2023-02-01T07:46:10;99715.95;;;5.96;100.00
17450;BME280;8842;51.244;7.102;2023-02-01T07:56:27;99723.27;;;5.91;100.00
17450;BME280;8842;51.244;7.102;2023-02-01T08:22:32;99728.42;;;6.01;100.00
17450;BME280;8842;51.244;7.102;2023-02-01T08:32:47;99724.75;;;6.13;100.00
17450;BME280;8842;51.244;7.102;2023-02-01T08:43:02;99742.05;;;6.09;100.00
17450;BME280;8842;51.244;7.102;2023-02-01T08:48:06;99762.58;;;6.11;100.00
17450;BME280;8842;51.244;7.102;2023-02-01T08:58:22;99763.36;;;6.13;100.00
17450;BME280;8842;51.244;7.102;2023-02-01T09:08:39;99764.84;;;6.10;100.00
17450;BME280;8842;51.244;7.102;2023-02-01T09:18:55;99753.67;;;6.30;100.00
17450;BME280;8842;51.244;7.102;2023-02-01T09:34:22;99743.49;;;6.31;100.00
17450;BME280;8842;51.244;7.102;2023-02-01T09:45:06;99745.22;;;6.32;100.00
17450;BME280;8842;51.244;7.102;2023-02-01T09:55:26;99729.52;;;6.37;100.00
17450;BME280;8842;51.244;7.102;2023-02-01T10:00:34;99748.19;;;6.26;100.00
17450;BME280;8842;51.244;7.102;2023-02-01T10:11:20;99735.81;;;6.35;100.00
17450;BME280;8842;51.244;7.102;2023-02-01T10:16:31;99735.69;;;6.45;100.00
17450;BME280;8842;51.244;7.102;2023-02-01T10:26:53;99731.76;;;6.52;100.00
17450;BME280;8842;51.244;7.102;2023-02-01T10:37:16;99722.97;;;6.29;100.00
17450;BME280;8842;51.244;7.102;2023-02-01T10:42:25;99727.33;;;6.37;100.00
17450;BME280;8842;51.244;7.102;2023-02-01T10:47:30;99733.18;;;6.35;100.00
17450;BME280;8842;51.244;7.102;2023-02-01T10:57:56;99721.86;;;6.17;100.00
17450;BME280;8842;51.244;7.102;2023-02-01T11:03:00;99725.33;;;6.18;100.00
17450;BME280;8842;51.244;7.102;2023-02-01T11:13:17;99699.98;;;6.31;100.00
17450;BME280;8842;51.244;7.102;2023-02-01T11:23:41;99695.13;;;6.39;100.00
17450;BME280;8842;51.244;7.102;2023-02-01T11:34:07;99685.27;;;6.42;100.00
17450;BME280;8842;51.244;7.102;2023-02-01T11:44:35;99683.98;;;6.49;100.00
17450;BME280;8842;51.244;7.102;2023-02-01T11:55:03;99665.27;;;6.61;100.00
17450;BME280;8842;51.244;7.102;2023-02-01T12:05:32;99626.22;;;6.81;100.00
17450;BME280;8842;51.244;7.102;2023-02-01T12:15:58;99637.13;;;6.75;100.00
17450;BME280;8842;51.244;7.102;2023-02-01T12:32:10;99621.28;;;6.68;100.00
17450;BME280;8842;51.244;7.102;2023-02-01T12:42:30;99629.08;;;6.85;100.00
17450;BME280;8842;51.244;7.102;2023-02-01T12:52:50;99588.72;;;6.90;100.00
17450;BME280;8842;51.244;7.102;2023-02-01T13:03:13;99582.24;;;7.03;100.00
17450;BME280;8842;51.244;7.102;2023-02-01T13:13:35;99574.97;;;6.99;100.00
17450;BME280;8842;51.244;7.102;2023-02-01T13:23:56;99578.95;;;7.13;100.00
17450;BME280;8842;51.244;7.102;2023-02-01T13:40:23;99576.95;;;7.17;100.00
17450;BME280;8842;51.244;7.102;2023-02-01T13:45:30;99565.08;;;6.96;100.00
17450;BME280;8842;51.244;7.102;2023-02-01T13:55:54;99569.59;;;6.94;100.00
17450;BME280;8842;51.244;7.102;2023-02-01T14:11:51;99572.97;;;6.82;100.00
17450;BME280;8842;51.244;7.102;2023-02-01T14:22:43;99579.74;;;6.72;100.00
17450;BME280;8842;51.244;7.102;2023-02-01T14:33:11;99574.87;;;6.87;100.00
17450;BME280;8842;51.244;7.102;2023-02-01T14:43:50;99579.78;;;7.00;100.00
17450;BME280;8842;51.244;7.102;2023-02-01T14:54:11;99597.34;;;7.22;100.00
17450;BME280;8842;51.244;7.102;2023-02-01T14:59:17;99605.08;;;7.32;100.00
17450;BME280;8842;51.244;7.102;2023-02-01T15:09:42;99601.20;;;7.37;100.00
17450;BME280;8842;51.244;7.102;2023-02-01T15:20:01;99614.42;;;7.51;100.00
17450;BME280;8842;51.244;7.102;2023-02-01T15:30:31;99615.47;;;7.49;100.00
17450;BME280;8842;51.244;7.102;2023-02-01T15:40:56;99619.61;;;7.53;100.00
17450;BME280;8842;51.244;7.102;2023-02-01T15:46:03;99618.11;;;7.49;100.00
17450;BME280;8842;51.244;7.102;2023-02-01T15:51:14;99619.88;;;7.55;100.00
17450;BME280;8842;51.244;7.102;2023-02-01T15:56:25;99622.15;;;7.61;100.00
17450;BME280;8842;51.244;7.102;2023-02-01T16:06:50;99615.27;;;7.59;100.00
17450;BME280;8842;51.244;7.102;2023-02-01T16:17:07;99622.83;;;7.58;100.00
17450;BME280;8842;51.244;7.102;2023-02-01T16:22:13;99619.41;;;7.63;100.00
17450;BME280;8842;51.244;7.102;2023-02-01T16:27:17;99631.30;;;7.63;100.00
17450;BME280;8842;51.244;7.102;2023-02-01T16:42:49;99610.92;;;7.65;100.00
17450;BME280;8842;51.244;7.102;2023-02-01T16:53:03;99647.17;;;7.56;100.00
17450;BME280;8842;51.244;7.102;2023-02-01T17:03:20;99654.91;;;7.59;100.00
17450;BME280;8842;51.244;7.102;2023-02-01T17:13:40;99661.05;;;7.66;100.00
17450;BME280;8842;51.244;7.102;2023-02-01T17:23:57;99653.04;;;7.61;100.00
17450;BME280;8842;51.244;7.102;2023-02-01T17:34:16;99678.98;;;7.61;100.00
17450;BME280;8842;51.244;7.102;2023-02-01T17:44:33;99689.66;;;7.74;100.00
17450;BME280;8842;51.244;7.102;2023-02-01T17:54:52;99694.09;;;7.66;100.00
17450;BME280;8842;51.244;7.102;2023-02-01T17:59:56;99696.19;;;7.68;100.00
17450;BME280;8842;51.244;7.102;2023-02-01T18:05:00;99697.11;;;7.53;100.00
17450;BME280;8842;51.244;7.102;2023-02-01T18:15:19;99677.09;;;7.63;100.00
17450;BME280;8842;51.244;7.102;2023-02-01T18:20:24;99684.17;;;7.63;100.00
17450;BME280;8842;51.244;7.102;2023-02-01T18:30:44;99680.58;;;7.57;100.00
17450;BME280;8842;51.244;7.102;2023-02-01T18:35:49;99680.02;;;7.59;100.00
17450;BME280;8842;51.244;7.102;2023-02-01T18:40:54;99666.34;;;7.66;100.00
17450;BME280;8842;51.244;7.102;2023-02-01T18:51:15;99672.09;;;7.66;100.00
17450;BME280;8842;51.244;7.102;2023-02-01T19:01:30;99662.45;;;7.72;100.00
17450;BME280;8842;51.244;7.102;2023-02-01T19:11:46;99691.45;;;7.66;100.00
17450;BME280;8842;51.244;7.102;2023-02-01T19:22:02;99693.98;;;7.75;100.00
17450;BME280;8842;51.244;7.102;2023-02-01T19:27:07;99705.70;;;7.71;100.00
17450;BME280;8842;51.244;7.102;2023-02-01T19:37:25;99696.81;;;7.79;100.00
17450;BME280;8842;51.244;7.102;2023-02-01T19:47:41;99680.79;;;7.61;100.00
17450;BME280;8842;51.244;7.102;2023-02-01T19:57:57;99667.08;;;7.61;100.00
17450;BME280;8842;51.244;7.102;2023-02-01T20:03:02;99666.04;;;7.57;100.00
17450;BME280;8842;51.244;7.102;2023-02-01T20:13:17;99658.20;;;7.55;100.00
17450;BME280;8842;51.244;7.102;2023-02-01T20:23:33;99654.70;;;7.48;100.00
17450;BME280;8842;51.244;7.102;2023-02-01T20:33:49;99642.83;;;7.34;100.00
17450;BME280;8842;51.244;7.102;2023-02-01T20:44:04;99709.42;;;7.32;100.00
17450;BME280;8842;51.244;7.102;2023-02-01T20:54:24;99737.69;;;5.35;100.00
17450;BME280;8842;51.244;7.102;2023-02-01T21:04:40;99722.76;;;5.01;100.00
17450;BME280;8842;51.244;7.102;2023-02-01T21:14:56;99713.47;;;5.03;100.00
17450;BME280;8842;51.244;7.102;2023-02-01T21:25:12;99686.34;;;5.18;100.00
17450;BME280;8842;51.244;7.102;2023-02-01T21:35:28;99702.84;;;5.38;100.00
17450;BME280;8842;51.244;7.102;2023-02-01T21:45:44;99730.77;;;5.99;100.00
17450;BME280;8842;51.244;7.102;2023-02-01T21:56:00;99729.33;;;6.09;100.00
17450;BME280;8842;51.244;7.102;2023-02-01T22:01:05;99730.77;;;6.14;100.00
17450;BME280;8842;51.244;7.102;2023-02-01T22:11:23;99735.55;;;6.55;100.00
17450;BME280;8842;51.244;7.102;2023-02-01T22:21:38;99732.03;;;6.85;100.00
17450;BME280;8842;51.244;7.102;2023-02-01T22:26:44;99737.66;;;6.79;100.00
17450;BME280;8842;51.244;7.102;2023-02-01T22:37:01;99751.59;;;6.97;100.00
17450;BME280;8842;51.244;7.102;2023-02-01T22:52:37;99750.81;;;6.95;100.00
17450;BME280;8842;51.244;7.102;2023-02-01T23:02:53;99771.96;;;7.02;100.00
17450;BME280;8842;51.244;7.102;2023-02-01T23:13:09;99762.37;;;7.08;100.00
17450;BME280;8842;51.244;7.102;2023-02-01T23:23:24;99761.82;;;7.10;100.00
17450;BME280;8842;51.244;7.102;2023-02-01T23:38:55;99800.31;;;7.14;100.00
17450;BME280;8842;51.244;7.102;2023-02-01T23:49:12;99809.08;;;7.30;100.00
